createdAt,value
2022-12-03T00:02:26.663Z,11.8
2022-12-03T00:07:26.659Z,11.7
2022-12-03T00:12:26.744Z,12.6
2022-12-03T00:17:26.595Z,11.9
2022-12-03T00:22:26.590Z,11.6
2022-12-03T00:27:26.593Z,12.4
2022-12-03T00:32:26.677Z,12.4
2022-12-03T00:37:26.628Z,13.0
2022-12-03T00:42:26.600Z,13.4
2022-12-03T00:47:26.603Z,11.6
2022-12-03T00:52:26.704Z,12.7
2022-12-03T00:57:26.606Z,13.6
2022-12-03T01:02:26.607Z,12.5
2022-12-03T01:07:26.698Z,13.1
2022-12-03T01:12:26.775Z,12.3
2022-12-03T01:17:26.608Z,12.2
2022-12-03T01:22:26.713Z,13.0
2022-12-03T01:27:26.611Z,12.3
2022-12-03T01:32:26.707Z,12.4
2022-12-03T01:37:26.627Z,12.4
2022-12-03T01:42:26.616Z,14.4
2022-12-03T01:47:26.718Z,16.1
2022-12-03T01:52:26.621Z,14.4
2022-12-03T01:57:26.617Z,13.1
2022-12-03T02:02:26.966Z,14.2
2022-12-03T02:07:26.811Z,13.5
2022-12-03T02:12:26.626Z,13.5
2022-12-03T02:17:26.628Z,13.1
2022-12-03T02:22:26.630Z,13.8
2022-12-03T02:27:26.640Z,16.3
2022-12-03T02:32:26.620Z,14.9
2022-12-03T02:37:26.630Z,14.9
2022-12-03T02:42:26.700Z,14.1
2022-12-03T02:47:26.651Z,15.5
2022-12-03T02:52:26.648Z,14.0
2022-12-03T02:57:26.630Z,13.7
2022-12-03T03:02:26.714Z,15.5
2022-12-03T03:07:26.713Z,15.3
2022-12-03T03:12:26.728Z,16.0
2022-12-03T03:17:26.655Z,14.2
2022-12-03T03:22:26.640Z,14.9
2022-12-03T03:27:26.646Z,14.6
2022-12-03T03:32:26.662Z,15.1
2022-12-03T03:37:26.665Z,15.8
2022-12-03T03:42:26.739Z,14.6
2022-12-03T03:47:26.653Z,13.7
2022-12-03T03:52:26.756Z,17.0
2022-12-03T03:57:26.643Z,17.9
2022-12-03T04:02:26.661Z,16.5
2022-12-03T04:07:26.732Z,16.7
2022-12-03T04:12:26.654Z,16.0
2022-12-03T04:17:26.760Z,15.0
2022-12-03T04:22:26.656Z,15.2
2022-12-03T04:27:26.886Z,16.2
2022-12-03T04:32:26.658Z,14.6
2022-12-03T04:37:26.667Z,17.8
2022-12-03T04:42:26.751Z,15.6
2022-12-03T04:47:26.659Z,15.3
2022-12-03T04:52:26.661Z,18.6
2022-12-03T04:57:26.660Z,18.5
2022-12-03T05:02:26.785Z,17.7
2022-12-03T05:07:26.690Z,19.6
2022-12-03T05:12:26.675Z,17.4
2022-12-03T05:17:26.671Z,17.4
2022-12-03T05:22:26.795Z,19.0
2022-12-03T05:27:26.801Z,17.2
2022-12-03T05:32:26.669Z,18.2
2022-12-03T05:37:26.808Z,18.6
2022-12-03T05:42:26.674Z,16.9
2022-12-03T05:47:26.741Z,17.8
2022-12-03T05:52:26.788Z,16.8
2022-12-03T05:57:26.674Z,17.9
2022-12-03T06:02:26.925Z,16.4
2022-12-03T06:07:26.775Z,16.3
2022-12-03T06:12:26.684Z,16.0
2022-12-03T06:17:26.688Z,14.5
2022-12-03T06:22:26.720Z,17.9
2022-12-03T06:27:26.685Z,15.3
2022-12-03T06:32:26.690Z,15.3
2022-12-03T06:37:26.707Z,17.7
2022-12-03T06:42:26.705Z,15.1
2022-12-03T06:47:26.688Z,14.1
2022-12-03T06:52:26.809Z,14.6
2022-12-03T06:57:26.691Z,15.9
2022-12-03T07:02:26.749Z,14.2
2022-12-03T07:07:26.726Z,14.2
2022-12-03T07:12:26.772Z,13.9
2022-12-03T07:17:26.792Z,14.0
2022-12-03T07:22:26.697Z,15.5
2022-12-03T07:27:26.702Z,15.9
2022-12-03T07:32:26.800Z,13.5
2022-12-03T07:37:26.798Z,15.1
2022-12-03T07:42:26.849Z,13.8
2022-12-03T07:47:26.733Z,14.9
2022-12-03T07:52:26.709Z,16.0
2022-12-03T07:57:26.784Z,15.1
2022-12-03T08:02:26.763Z,14.3
2022-12-03T08:07:26.968Z,15.1
2022-12-03T08:12:26.709Z,14.7
2022-12-03T08:17:26.705Z,17.7
2022-12-03T08:22:26.807Z,15.8
2022-12-03T08:27:26.715Z,14.0
2022-12-03T08:32:26.765Z,15.6
2022-12-03T08:37:26.798Z,15.4
2022-12-03T08:42:26.853Z,16.1
2022-12-03T08:47:26.763Z,17.0
2022-12-03T08:52:26.732Z,17.2
2022-12-03T08:57:26.813Z,14.5
2022-12-03T09:02:26.859Z,16.8
2022-12-03T09:07:27.016Z,15.2
2022-12-03T09:12:26.754Z,13.8
2022-12-03T09:17:26.821Z,15.2
2022-12-03T09:22:26.918Z,15.9
2022-12-03T09:27:26.724Z,16.0
2022-12-03T09:32:26.825Z,15.9
2022-12-03T09:37:26.816Z,15.1
2022-12-03T09:42:26.730Z,16.2
2022-12-03T09:47:26.737Z,15.4
2022-12-03T09:52:26.830Z,13.9
2022-12-03T09:57:26.739Z,12.2
2022-12-03T10:02:26.733Z,11.4
2022-12-03T10:07:26.775Z,10.5
2022-12-03T10:12:26.739Z,11.5
2022-12-03T10:17:26.811Z,10.7
2022-12-03T10:22:26.736Z,11.3
2022-12-03T10:27:26.746Z,11.2
2022-12-03T10:32:26.749Z,9.4
2022-12-03T10:37:26.746Z,9.0
2022-12-03T10:42:26.758Z,9.9
2022-12-03T10:47:26.978Z,9.7
2022-12-03T10:52:26.761Z,9.5
2022-12-03T10:57:26.755Z,11.6
2022-12-03T11:02:26.748Z,12.9
2022-12-03T11:07:26.893Z,12.4
2022-12-03T11:12:26.860Z,11.8
2022-12-03T11:17:26.765Z,11.0
2022-12-03T11:22:26.758Z,11.2
2022-12-03T11:27:26.776Z,10.7
2022-12-03T11:32:31.773Z,13.2
2022-12-03T11:37:26.858Z,13.5
2022-12-03T11:42:26.983Z,11.6
2022-12-03T11:47:26.777Z,12.2
2022-12-03T11:52:26.764Z,11.1
2022-12-03T11:57:26.871Z,11.7
2022-12-03T12:02:26.868Z,11.1
2022-12-03T12:07:26.809Z,12.7
2022-12-03T12:12:26.773Z,12.0
2022-12-03T12:17:26.775Z,11.3
2022-12-03T12:22:26.772Z,13.5
2022-12-03T12:27:26.768Z,13.2
2022-12-03T12:32:26.777Z,12.4
2022-12-03T12:37:26.780Z,12.9
2022-12-03T12:42:26.777Z,15.8
2022-12-03T12:47:26.929Z,13.2
2022-12-03T12:52:26.782Z,12.2
2022-12-03T12:57:26.799Z,13.5
2022-12-03T13:02:26.848Z,14.2
2022-12-03T13:07:26.804Z,14.9
2022-12-03T13:12:26.782Z,14.8
2022-12-03T13:17:26.893Z,14.0
2022-12-03T13:22:26.787Z,16.1
2022-12-03T13:27:26.784Z,15.1
2022-12-03T13:32:26.878Z,15.5
2022-12-03T13:37:26.788Z,15.7
2022-12-03T13:42:26.794Z,15.3
2022-12-03T13:47:26.882Z,16.0
2022-12-03T13:52:26.792Z,15.0
2022-12-03T13:57:26.793Z,13.7
2022-12-03T14:02:26.872Z,14.9
2022-12-03T14:07:26.897Z,16.9
2022-12-03T14:12:26.796Z,16.6
2022-12-03T14:17:26.800Z,14.3
2022-12-03T14:22:26.798Z,15.7
2022-12-03T14:27:26.800Z,16.2
2022-12-03T14:32:26.806Z,16.7
2022-12-03T14:37:26.808Z,16.2
2022-12-03T14:42:26.805Z,16.5
2022-12-03T14:47:26.898Z,15.5
2022-12-03T14:52:26.805Z,15.8
2022-12-03T14:57:26.813Z,16.8
2022-12-03T15:02:26.860Z,16.4
2022-12-03T15:07:26.894Z,16.6
2022-12-03T15:12:26.805Z,15.0
2022-12-03T15:17:32.102Z,15.5
2022-12-03T15:22:26.909Z,18.0
2022-12-03T15:27:26.814Z,17.3
2022-12-03T15:32:26.910Z,17.2
2022-12-03T15:37:26.910Z,17.1
2022-12-03T15:42:26.821Z,17.8
2022-12-03T15:47:26.922Z,18.3
2022-12-03T15:52:26.914Z,18.1
2022-12-03T15:57:26.927Z,19.0
2022-12-03T16:02:27.057Z,17.9
2022-12-03T16:07:27.160Z,17.0
2022-12-03T16:12:26.924Z,17.6
2022-12-03T16:17:26.982Z,18.3
2022-12-03T16:22:26.924Z,18.5
2022-12-03T16:27:26.922Z,19.4
2022-12-03T16:32:26.917Z,19.2
2022-12-03T16:37:26.927Z,18.1
2022-12-03T16:42:26.940Z,19.2
2022-12-03T16:47:32.073Z,16.2
2022-12-03T16:52:26.930Z,17.0
2022-12-03T16:57:33.157Z,16.1
2022-12-03T17:02:26.999Z,17.2
2022-12-03T17:07:26.993Z,16.9
2022-12-03T17:12:37.430Z,18.7
2022-12-03T17:17:26.937Z,17.7
2022-12-03T17:22:27.010Z,19.7
2022-12-03T17:27:26.934Z,18.2
2022-12-03T17:32:26.935Z,18.1
2022-12-03T17:37:26.938Z,17.7
2022-12-03T17:42:26.940Z,18.4
2022-12-03T17:47:26.955Z,18.0
2022-12-03T17:52:26.943Z,16.7
2022-12-03T17:57:26.939Z,20.7
2022-12-03T18:02:26.944Z,20.7
2022-12-03T18:07:27.020Z,20.6
2022-12-03T18:12:26.943Z,19.5
2022-12-03T18:17:26.942Z,19.1
2022-12-03T18:22:27.200Z,18.6
2022-12-03T18:27:26.946Z,18.9
2022-12-03T18:32:30.168Z,21.9
2022-12-03T18:37:26.952Z,20.5
2022-12-03T18:42:26.953Z,20.7
2022-12-03T18:47:27.126Z,20.4
2022-12-03T18:52:26.953Z,21.8
2022-12-03T18:57:26.956Z,21.2
2022-12-03T19:03:01.402Z,21.2
2022-12-03T19:07:26.964Z,20.5
2022-12-03T19:12:26.954Z,21.2
2022-12-03T19:17:27.098Z,24.7
2022-12-03T19:22:26.958Z,22.3
2022-12-03T19:27:26.961Z,20.1
2022-12-03T19:32:26.960Z,20.6
2022-12-03T19:37:27.058Z,21.7
2022-12-03T19:42:26.958Z,19.7
2022-12-03T19:47:26.960Z,21.4
2022-12-03T19:52:26.965Z,22.2
2022-12-03T19:57:26.965Z,22.8
2022-12-03T20:02:27.179Z,23.7
2022-12-03T20:07:27.045Z,20.1
2022-12-03T20:12:26.977Z,22.6
2022-12-03T20:17:26.970Z,26.5
2022-12-03T20:22:27.117Z,25.1
2022-12-03T20:27:26.977Z,21.7
2022-12-03T20:32:26.976Z,24.0
2022-12-03T20:37:27.079Z,23.5
2022-12-03T20:42:26.976Z,23.1
2022-12-03T20:47:26.981Z,23.3
2022-12-03T20:52:26.979Z,26.2
2022-12-03T20:57:26.981Z,22.5
2022-12-03T21:02:27.010Z,23.8
2022-12-03T21:07:27.062Z,25.7
2022-12-03T21:12:27.076Z,23.2
2022-12-03T21:17:27.068Z,23.4
2022-12-03T21:22:26.997Z,23.4
2022-12-03T21:27:27.041Z,24.1
2022-12-03T21:32:26.991Z,21.9
2022-12-03T21:37:26.999Z,21.9
2022-12-03T21:42:35.458Z,22.1
2022-12-03T21:47:28.948Z,21.5
2022-12-03T21:52:26.997Z,22.2
2022-12-03T21:57:26.992Z,26.9
2022-12-03T22:02:27.051Z,23.3
2022-12-03T22:07:27.071Z,21.2
2022-12-03T22:12:27.009Z,26.7
2022-12-03T22:17:27.001Z,23.0
2022-12-03T22:22:27.002Z,25.3
2022-12-03T22:27:27.017Z,21.7
2022-12-03T22:32:27.005Z,23.7
2022-12-03T22:37:27.003Z,24.5
2022-12-03T22:42:27.009Z,22.7
2022-12-03T22:47:27.008Z,26.0
2022-12-03T22:52:27.004Z,22.7
2022-12-03T22:57:27.011Z,23.0
2022-12-03T23:02:27.034Z,22.4
2022-12-03T23:12:27.039Z,20.5
2022-12-03T23:17:27.019Z,24.3
2022-12-03T23:22:27.061Z,25.0
2022-12-03T23:27:27.022Z,25.8
2022-12-03T23:32:27.007Z,25.3
2022-12-03T23:37:27.023Z,23.3
2022-12-03T23:42:27.023Z,22.4
2022-12-03T23:47:27.022Z,23.9
2022-12-03T23:52:27.026Z,23.3
2022-12-03T23:57:27.015Z,26.3
